Time;durP1;ratioP1;P1;durP2;ratioP2;P2;SDS_P1;SDS_P2;PMS_P1;PMS_P2;Temp;Humidity;BMP_temperature;BMP_pressure;BME280_temperature;BME280_humidity;BME280_pressure;Samples;Min_cycle;Max_cycle;Signal;HPM_P1;HPM_P2
2022/03/19 00:00:04;;;;;;;5.60;3.00;;;;;;;;;;509116;29;832;-73
2022/03/19 00:00:21;;;;;;;6.35;3.20;;;;;;;;;;508091;29;1261;-74
2022/03/19 00:00:36;;;;;;;6.97;3.10;;;;;;;;;;509424;29;829;-74
2022/03/19 00:00:53;;;;;;;7.47;3.10;;;;;;;;;;509325;29;758;-73
2022/03/19 00:01:08;;;;;;;7.13;3.08;;;;;;;;;;509247;29;936;-73
2022/03/19 00:01:24;;;;;;;6.00;3.00;;;;;;;;;;509508;29;941;-73
2022/03/19 00:01:39;;;;;;;5.75;3.00;;;;;;;;;;510090;29;790;-73
2022/03/19 00:01:54;;;;;;;5.33;2.90;;;;;;;;;;511735;29;793;-73
2022/03/19 00:02:11;;;;;;;6.03;2.93;;;;;;;;;;511517;29;726;-73
2022/03/19 00:02:26;;;;;;;6.72;2.97;;;;;;;;;;511434;29;794;-73
2022/03/19 00:02:41;;;;;;;7.00;3.00;;;;;;;;;;511739;29;975;-74
2022/03/19 00:02:57;;;;;;;7.32;2.85;;;;;;;;;;511601;29;1295;-74
2022/03/19 00:03:12;;;;;;;6.93;2.90;;;;;;;;;;508960;29;1433;-74
2022/03/19 00:03:28;;;;;;;6.77;2.97;;;;;;;;;;509850;29;1484;-73
2022/03/19 00:03:43;;;;;;;5.97;2.70;;;;;;;;;;509611;29;856;-73
2022/03/19 00:03:58;;;;;;;4.97;2.80;;;;;;;;;;508865;29;738;-73
2022/03/19 00:04:13;;;;;;;4.87;2.83;;;;;;;;;;507302;29;1198;-73
2022/03/19 00:04:29;;;;;;;5.38;2.85;;;;;;;;;;509551;29;841;-73
2022/03/19 00:04:44;;;;;;;5.43;2.90;;;;;;;;;;509983;29;936;-73
2022/03/19 00:04:59;;;;;;;5.70;2.90;;;;;;;;;;511583;28;928;-73
2022/03/19 00:05:15;;;;;;;5.80;2.80;;;;;;;;;;511459;29;1417;-73
2022/03/19 00:05:30;;;;;;;5.75;2.80;;;;;;;;;;511410;29;828;-73
2022/03/19 00:05:45;;;;;;;6.33;3.00;;;;;;;;;;511447;29;1411;-73
2022/03/19 00:06:01;;;;;;;7.28;3.33;;;;;;;;;;510415;29;1466;-73
2022/03/19 00:06:16;;;;;;;8.37;3.30;;;;;;;;;;511464;29;1463;-73
2022/03/19 00:06:37;;;;;;;7.03;2.97;;;;;;;;;;511550;29;1158;-74
2022/03/19 00:06:52;;;;;;;4.72;2.78;;;;;;;;;;511658;29;797;-74
2022/03/19 00:07:07;;;;;;;5.93;3.20;;;;;;;;;;511715;28;881;-73
2022/03/19 00:07:23;;;;;;;6.18;3.05;;;;;;;;;;511279;29;785;-73
2022/03/19 00:07:41;;;;;;;6.40;2.90;;;;;;;;;;511680;29;892;-73
2022/03/19 00:07:57;;;;;;;6.30;3.03;;;;;;;;;;511682;29;833;-73
2022/03/19 00:08:16;;;;;;;6.80;3.07;;;;;;;;;;509467;29;1523;-73
2022/03/19 00:08:31;;;;;;;6.20;2.80;;;;;;;;;;512328;28;896;-74
2022/03/19 00:08:47;;;;;;;6.50;2.95;;;;;;;;;;513208;28;963;-74
2022/03/19 00:09:03;;;;;;;6.43;3.10;;;;;;;;;;509573;29;1228;-74
2022/03/19 00:09:19;;;;;;;5.85;3.00;;;;;;;;;;510135;29;797;-73
2022/03/19 00:09:34;;;;;;;5.40;2.90;;;;;;;;;;511088;29;1915;-73
2022/03/19 00:09:50;;;;;;;6.10;2.95;;;;;;;;;;511874;29;793;-73
2022/03/19 00:10:08;;;;;;;7.03;2.97;;;;;;;;;;511878;28;762;-73
2022/03/19 00:10:24;;;;;;;7.25;3.08;;;;;;;;;;512488;28;825;-73
2022/03/19 00:10:39;;;;;;;7.15;3.50;;;;;;;;;;513602;28;785;-73
2022/03/19 00:10:55;;;;;;;6.20;3.50;;;;;;;;;;513766;28;1343;-73
2022/03/19 00:11:10;;;;;;;6.20;3.20;;;;;;;;;;513795;28;1184;-73
2022/03/19 00:11:25;;;;;;;6.43;3.20;;;;;;;;;;513655;28;750;-73
2022/03/19 00:11:41;;;;;;;6.15;3.05;;;;;;;;;;513387;28;1393;-73
2022/03/19 00:11:56;;;;;;;6.40;3.10;;;;;;;;;;513119;28;1269;-73
2022/03/19 00:12:14;;;;;;;5.97;3.05;;;;;;;;;;511113;29;1219;-73
2022/03/19 00:12:29;;;;;;;7.20;3.13;;;;;;;;;;507666;29;1371;-73
2022/03/19 00:12:45;;;;;;;8.63;3.50;;;;;;;;;;507887;29;755;-73
2022/03/19 00:13:00;;;;;;;7.37;3.40;;;;;;;;;;508206;29;1200;-73
2022/03/19 00:13:15;;;;;;;6.03;3.30;;;;;;;;;;509357;29;1501;-73
2022/03/19 00:13:31;;;;;;;6.10;3.23;;;;;;;;;;510858;29;738;-73
2022/03/19 00:13:46;;;;;;;6.67;3.10;;;;;;;;;;507930;29;1388;-73
2022/03/19 00:14:02;;;;;;;6.75;3.00;;;;;;;;;;509482;29;1245;-73
2022/03/19 00:14:18;;;;;;;7.07;3.10;;;;;;;;;;510051;29;797;-73
2022/03/19 00:14:33;;;;;;;7.77;3.33;;;;;;;;;;509684;29;1231;-73
2022/03/19 00:14:48;;;;;;;6.75;3.20;;;;;;;;;;509927;29;975;-73
2022/03/19 00:15:04;;;;;;;5.57;2.97;;;;;;;;;;507837;29;1175;-73
2022/03/19 00:15:20;;;;;;;5.35;2.90;;;;;;;;;;510006;29;868;-73
2022/03/19 00:15:37;;;;;;;7.63;3.25;;;;;;;;;;507863;29;754;-73
2022/03/19 00:15:52;;;;;;;9.50;3.40;;;;;;;;;;508167;29;786;-73
2022/03/19 00:16:07;;;;;;;7.05;3.20;;;;;;;;;;509762;29;770;-73
2022/03/19 00:16:24;;;;;;;6.40;3.30;;;;;;;;;;510184;29;730;-73
2022/03/19 00:16:39;;;;;;;6.75;3.30;;;;;;;;;;511165;28;1437;-74
2022/03/19 00:16:54;;;;;;;6.83;3.00;;;;;;;;;;512589;28;834;-74
2022/03/19 00:17:10;;;;;;;6.83;3.07;;;;;;;;;;513034;28;729;-73
2022/03/19 00:17:25;;;;;;;7.40;3.35;;;;;;;;;;513747;28;754;-73
2022/03/19 00:17:41;;;;;;;7.33;3.20;;;;;;;;;;513747;28;1164;-73
2022/03/19 00:17:57;;;;;;;5.88;2.80;;;;;;;;;;511503;29;1142;-73
2022/03/19 00:18:12;;;;;;;5.05;2.67;;;;;;;;;;511870;29;1457;-73
2022/03/19 00:18:27;;;;;;;5.43;2.80;;;;;;;;;;510044;29;1540;-73
2022/03/19 00:18:43;;;;;;;6.03;3.00;;;;;;;;;;509812;29;932;-73
2022/03/19 00:18:58;;;;;;;6.65;2.90;;;;;;;;;;511336;29;1224;-73
2022/03/19 00:19:13;;;;;;;6.53;2.80;;;;;;;;;;511686;29;825;-73
2022/03/19 00:19:29;;;;;;;5.70;2.80;;;;;;;;;;510244;29;991;-73
2022/03/19 00:19:44;;;;;;;7.13;3.03;;;;;;;;;;511781;28;758;-73
2022/03/19 00:20:00;;;;;;;7.97;3.13;;;;;;;;;;509556;29;833;-73
2022/03/19 00:20:15;;;;;;;7.20;3.20;;;;;;;;;;511611;28;872;-73
2022/03/19 00:20:32;;;;;;;7.07;3.17;;;;;;;;;;512080;28;844;-73
2022/03/19 00:20:47;;;;;;;6.82;3.10;;;;;;;;;;511000;28;1273;-73
2022/03/19 00:21:02;;;;;;;6.80;3.07;;;;;;;;;;512552;28;1174;-73
2022/03/19 00:21:18;;;;;;;6.07;2.80;;;;;;;;;;511791;28;873;-73
2022/03/19 00:21:34;;;;;;;5.27;2.90;;;;;;;;;;511731;29;721;-73
2022/03/19 00:21:49;;;;;;;6.75;3.10;;;;;;;;;;511721;29;1285;-73
2022/03/19 00:22:06;;;;;;;7.20;3.05;;;;;;;;;;511449;29;830;-73
2022/03/19 00:22:21;;;;;;;6.50;3.05;;;;;;;;;;511377;29;782;-73
2022/03/19 00:22:37;;;;;;;6.77;3.17;;;;;;;;;;509721;29;1280;-73
2022/03/19 00:22:52;;;;;;;7.53;3.05;;;;;;;;;;507727;29;1470;-73
2022/03/19 00:23:08;;;;;;;7.30;3.00;;;;;;;;;;507112;29;1364;-73
2022/03/19 00:23:23;;;;;;;7.53;3.20;;;;;;;;;;508554;29;1616;-73
2022/03/19 00:23:39;;;;;;;7.00;3.17;;;;;;;;;;506987;29;1292;-73
2022/03/19 00:23:55;;;;;;;5.97;3.20;;;;;;;;;;507913;29;1487;-73
2022/03/19 00:24:10;;;;;;;6.03;3.20;;;;;;;;;;507343;29;1428;-73
2022/03/19 00:24:25;;;;;;;6.15;3.10;;;;;;;;;;509366;29;817;-73
2022/03/19 00:24:41;;;;;;;6.57;2.90;;;;;;;;;;512094;28;845;-73
2022/03/19 00:24:58;;;;;;;6.57;2.90;;;;;;;;;;512533;28;750;-73
2022/03/19 00:25:13;;;;;;;5.50;3.05;;;;;;;;;;511562;28;889;-73
2022/03/19 00:25:28;;;;;;;6.25;3.00;;;;;;;;;;512480;28;1013;-73
2022/03/19 00:25:44;;;;;;;7.03;3.10;;;;;;;;;;511940;29;908;-73
2022/03/19 00:25:59;;;;;;;6.10;3.13;;;;;;;;;;512061;28;925;-73
2022/03/19 00:26:15;;;;;;;5.95;3.10;;;;;;;;;;512915;28;1313;-73
2022/03/19 00:26:30;;;;;;;6.50;3.03;;;;;;;;;;513805;28;876;-73
2022/03/19 00:26:46;;;;;;;6.90;3.23;;;;;;;;;;511682;29;1198;-73
2022/03/19 00:27:01;;;;;;;6.80;3.40;;;;;;;;;;509695;29;1293;-73
2022/03/19 00:27:16;;;;;;;7.00;3.20;;;;;;;;;;509360;29;1300;-73
2022/03/19 00:27:32;;;;;;;6.07;2.90;;;;;;;;;;508710;29;940;-73
2022/03/19 00:27:47;;;;;;;5.00;2.87;;;;;;;;;;508208;29;999;-73
2022/03/19 00:28:02;;;;;;;5.95;2.90;;;;;;;;;;510120;29;789;-73
2022/03/19 00:28:19;;;;;;;6.60;2.97;;;;;;;;;;509401;29;1398;-73
2022/03/19 00:28:36;;;;;;;7.55;3.22;;;;;;;;;;509647;29;1801;-74
2022/03/19 00:28:52;;;;;;;6.35;2.97;;;;;;;;;;508608;29;1203;-74
2022/03/19 00:29:08;;;;;;;5.47;2.80;;;;;;;;;;508569;29;785;-73
2022/03/19 00:29:23;;;;;;;6.95;3.30;;;;;;;;;;509648;29;935;-73
2022/03/19 00:29:38;;;;;;;7.25;3.25;;;;;;;;;;509860;29;1902;-73
2022/03/19 00:29:54;;;;;;;6.50;3.07;;;;;;;;;;507727;29;1232;-73
2022/03/19 00:30:10;;;;;;;6.10;3.00;;;;;;;;;;507783;29;758;-73
2022/03/19 00:30:25;;;;;;;5.53;2.92;;;;;;;;;;509972;29;1045;-73
2022/03/19 00:30:40;;;;;;;5.43;2.90;;;;;;;;;;510042;29;1175;-73
2022/03/19 00:30:56;;;;;;;5.80;2.80;;;;;;;;;;509709;29;1427;-74
2022/03/19 00:31:11;;;;;;;5.68;3.00;;;;;;;;;;509645;29;738;-74
2022/03/19 00:31:28;;;;;;;6.13;3.13;;;;;;;;;;509814;29;1071;-74
2022/03/19 00:31:43;;;;;;;6.68;3.25;;;;;;;;;;510555;29;864;-74
2022/03/19 00:31:59;;;;;;;6.37;3.37;;;;;;;;;;511811;29;849;-74
2022/03/19 00:32:14;;;;;;;6.20;3.33;;;;;;;;;;509829;29;1392;-73
2022/03/19 00:32:29;;;;;;;7.87;3.20;;;;;;;;;;507279;29;1374;-73
2022/03/19 00:32:45;;;;;;;7.63;3.30;;;;;;;;;;508225;29;1420;-73
2022/03/19 00:33:00;;;;;;;6.22;3.28;;;;;;;;;;508062;29;1522;-73
2022/03/19 00:33:15;;;;;;;7.60;3.10;;;;;;;;;;509581;29;1466;-73
2022/03/19 00:33:31;;;;;;;7.63;3.03;;;;;;;;;;510598;29;1142;-73
2022/03/19 00:33:46;;;;;;;7.15;3.20;;;;;;;;;;510202;29;1043;-73
2022/03/19 00:34:02;;;;;;;5.93;3.17;;;;;;;;;;511592;29;741;-73
2022/03/19 00:34:17;;;;;;;4.95;2.92;;;;;;;;;;511591;29;797;-73
2022/03/19 00:34:32;;;;;;;6.13;3.00;;;;;;;;;;507523;29;1289;-73
2022/03/19 00:34:48;;;;;;;6.88;2.95;;;;;;;;;;508138;29;972;-73
2022/03/19 00:35:04;;;;;;;6.43;2.97;;;;;;;;;;509408;29;821;-73
2022/03/19 00:35:19;;;;;;;5.80;2.92;;;;;;;;;;510093;29;1182;-73
2022/03/19 00:35:34;;;;;;;5.97;2.77;;;;;;;;;;513853;28;1170;-73
2022/03/19 00:35:50;;;;;;;6.47;2.90;;;;;;;;;;511733;29;1269;-73
2022/03/19 00:36:05;;;;;;;6.13;3.00;;;;;;;;;;508379;29;1249;-73
2022/03/19 00:36:20;;;;;;;6.20;3.00;;;;;;;;;;506052;29;1206;-73
2022/03/19 00:36:36;;;;;;;5.87;3.00;;;;;;;;;;507289;29;755;-74
2022/03/19 00:36:51;;;;;;;6.23;3.00;;;;;;;;;;509996;29;1238;-74
2022/03/19 00:37:06;;;;;;;7.72;3.15;;;;;;;;;;506986;29;1187;-74
2022/03/19 00:37:23;;;;;;;7.07;3.00;;;;;;;;;;506193;29;739;-74
2022/03/19 00:37:46;;;;;;;6.40;3.05;;;;;;;;;;506763;29;1277;-74
2022/03/19 00:38:04;;;;;;;6.95;2.95;;;;;;;;;;509398;29;829;-74
2022/03/19 00:38:19;;;;;;;8.25;3.22;;;;;;;;;;507192;29;1470;-73
2022/03/19 00:38:34;;;;;;;7.05;3.10;;;;;;;;;;507234;29;905;-73
2022/03/19 00:38:50;;;;;;;5.67;2.97;;;;;;;;;;507767;29;727;-73
2022/03/19 00:39:05;;;;;;;6.60;3.00;;;;;;;;;;509918;29;842;-73
2022/03/19 00:39:20;;;;;;;6.00;2.95;;;;;;;;;;510204;29;1186;-74
2022/03/19 00:39:36;;;;;;;5.60;3.00;;;;;;;;;;511483;28;1294;-74
2022/03/19 00:39:51;;;;;;;6.20;3.10;;;;;;;;;;511726;29;1400;-74
2022/03/19 00:40:08;;;;;;;7.47;3.30;;;;;;;;;;511348;29;1296;-74
2022/03/19 00:40:23;;;;;;;7.70;3.20;;;;;;;;;;511452;29;786;-74
2022/03/19 00:40:38;;;;;;;6.47;3.00;;;;;;;;;;509452;29;754;-74
2022/03/19 00:40:54;;;;;;;6.77;3.20;;;;;;;;;;510442;29;979;-73
2022/03/19 00:41:09;;;;;;;6.47;3.20;;;;;;;;;;512240;28;801;-74
2022/03/19 00:41:24;;;;;;;5.88;3.08;;;;;;;;;;513839;28;810;-74
2022/03/19 00:41:40;;;;;;;6.33;3.00;;;;;;;;;;513633;28;781;-74
2022/03/19 00:41:55;;;;;;;6.43;2.90;;;;;;;;;;513841;28;908;-74
2022/03/19 00:42:10;;;;;;;5.38;2.88;;;;;;;;;;514018;28;837;-74
2022/03/19 00:42:26;;;;;;;4.37;2.73;;;;;;;;;;513166;28;1287;-74
2022/03/19 00:42:42;;;;;;;5.03;2.93;;;;;;;;;;511750;28;774;-73
2022/03/19 00:42:58;;;;;;;6.68;3.10;;;;;;;;;;511517;29;1024;-73
2022/03/19 00:43:13;;;;;;;7.30;3.00;;;;;;;;;;511342;28;1231;-73
2022/03/19 00:43:29;;;;;;;7.25;3.00;;;;;;;;;;512758;28;927;-73
2022/03/19 00:43:44;;;;;;;7.07;2.90;;;;;;;;;;513634;28;1077;-73
2022/03/19 00:44:00;;;;;;;6.07;2.90;;;;;;;;;;511046;29;802;-73
2022/03/19 00:44:15;;;;;;;6.10;3.00;;;;;;;;;;510764;29;1115;-73
2022/03/19 00:44:30;;;;;;;7.10;3.30;;;;;;;;;;509668;29;1464;-73
2022/03/19 00:44:47;;;;;;;6.83;3.20;;;;;;;;;;509737;29;1249;-73
2022/03/19 00:45:03;;;;;;;6.18;3.05;;;;;;;;;;509075;29;1293;-73
2022/03/19 00:45:18;;;;;;;6.53;3.03;;;;;;;;;;507885;29;1339;-73
2022/03/19 00:45:33;;;;;;;6.30;2.90;;;;;;;;;;507767;29;881;-73
2022/03/19 00:45:49;;;;;;;4.70;2.63;;;;;;;;;;507559;29;846;-73
2022/03/19 00:46:04;;;;;;;6.07;2.75;;;;;;;;;;508239;29;785;-74
2022/03/19 00:46:20;;;;;;;8.00;3.00;;;;;;;;;;509362;29;937;-73
2022/03/19 00:46:35;;;;;;;7.97;3.03;;;;;;;;;;509989;29;770;-73
2022/03/19 00:46:51;;;;;;;7.03;3.00;;;;;;;;;;511585;29;1040;-73
2022/03/19 00:47:06;;;;;;;5.97;2.85;;;;;;;;;;511387;29;1405;-73
2022/03/19 00:47:21;;;;;;;6.07;2.80;;;;;;;;;;511919;28;852;-73
2022/03/19 00:47:37;;;;;;;6.77;3.00;;;;;;;;;;513886;28;841;-73
2022/03/19 00:47:52;;;;;;;7.05;3.20;;;;;;;;;;513984;28;789;-74
2022/03/19 00:48:07;;;;;;;6.03;2.97;;;;;;;;;;513893;28;731;-74
2022/03/19 00:48:23;;;;;;;5.90;2.70;;;;;;;;;;512137;28;1505;-73
2022/03/19 00:48:38;;;;;;;6.70;2.92;;;;;;;;;;513161;28;833;-73
2022/03/19 00:48:53;;;;;;;6.23;2.90;;;;;;;;;;512565;28;801;-73
2022/03/19 00:49:08;;;;;;;6.63;2.87;;;;;;;;;;512433;28;909;-73
2022/03/19 00:49:24;;;;;;;7.35;3.10;;;;;;;;;;512500;28;818;-73
2022/03/19 00:49:39;;;;;;;6.80;3.03;;;;;;;;;;512030;28;1907;-73
2022/03/19 00:49:54;;;;;;;5.93;2.90;;;;;;;;;;512317;28;908;-73
2022/03/19 00:50:10;;;;;;;5.40;2.83;;;;;;;;;;513420;28;1169;-73
2022/03/19 00:50:25;;;;;;;6.72;3.10;;;;;;;;;;513867;28;1107;-74
2022/03/19 00:50:41;;;;;;;8.23;3.15;;;;;;;;;;513426;28;798;-73
2022/03/19 00:50:56;;;;;;;7.37;2.90;;;;;;;;;;513761;28;1110;-73
2022/03/19 00:51:11;;;;;;;6.87;2.97;;;;;;;;;;511235;29;1257;-73
2022/03/19 00:51:27;;;;;;;7.75;3.10;;;;;;;;;;509587;29;1167;-73
2022/03/19 00:51:42;;;;;;;8.60;3.23;;;;;;;;;;509465;29;912;-73
2022/03/19 00:51:57;;;;;;;7.27;3.17;;;;;;;;;;509541;29;916;-73
2022/03/19 00:52:12;;;;;;;6.47;2.92;;;;;;;;;;509882;29;809;-73
2022/03/19 00:52:28;;;;;;;7.00;2.80;;;;;;;;;;509651;29;790;-73
2022/03/19 00:52:43;;;;;;;6.90;3.00;;;;;;;;;;507693;29;1179;-73
2022/03/19 00:52:58;;;;;;;7.03;3.20;;;;;;;;;;508049;29;1229;-73
2022/03/19 00:53:14;;;;;;;6.57;3.03;;;;;;;;;;509861;28;1394;-74
2022/03/19 00:53:29;;;;;;;5.93;2.80;;;;;;;;;;512364;28;821;-74
2022/03/19 00:53:44;;;;;;;5.47;2.87;;;;;;;;;;513611;28;815;-74
2022/03/19 00:54:00;;;;;;;5.45;3.03;;;;;;;;;;511841;28;921;-73
2022/03/19 00:54:15;;;;;;;6.10;3.10;;;;;;;;;;511601;29;1173;-73
2022/03/19 00:54:30;;;;;;;6.43;3.10;;;;;;;;;;509743;29;936;-74
2022/03/19 00:54:45;;;;;;;5.95;2.92;;;;;;;;;;509823;29;1382;-74
2022/03/19 00:55:01;;;;;;;5.90;2.90;;;;;;;;;;511562;29;915;-73
2022/03/19 00:55:16;;;;;;;5.72;2.80;;;;;;;;;;511780;29;849;-74
2022/03/19 00:55:32;;;;;;;5.47;2.80;;;;;;;;;;512011;29;746;-74
2022/03/19 00:55:47;;;;;;;5.40;2.87;;;;;;;;;;511882;29;841;-74
2022/03/19 00:56:03;;;;;;;5.75;2.83;;;;;;;;;;510208;29;1408;-73
2022/03/19 00:56:18;;;;;;;6.30;2.80;;;;;;;;;;511968;29;968;-73
2022/03/19 00:56:33;;;;;;;6.05;2.78;;;;;;;;;;510073;29;1190;-73
2022/03/19 00:56:49;;;;;;;6.00;3.07;;;;;;;;;;512198;29;972;-73
2022/03/19 00:57:05;;;;;;;6.13;3.20;;;;;;;;;;512275;29;829;-73
2022/03/19 00:57:20;;;;;;;6.47;3.10;;;;;;;;;;511502;29;911;-73
2022/03/19 00:57:43;;;;;;;7.43;3.20;;;;;;;;;;510091;29;1490;-73
2022/03/19 00:57:58;;;;;;;5.85;2.90;;;;;;;;;;511715;29;942;-74
2022/03/19 00:58:14;;;;;;;6.17;2.97;;;;;;;;;;511433;29;1520;-74
2022/03/19 00:58:29;;;;;;;5.47;3.00;;;;;;;;;;512601;28;916;-74
2022/03/19 00:58:44;;;;;;;6.38;2.90;;;;;;;;;;512119;29;1313;-74
2022/03/19 00:59:00;;;;;;;6.93;2.90;;;;;;;;;;508969;29;1289;-74
2022/03/19 00:59:15;;;;;;;6.07;2.80;;;;;;;;;;510321;29;743;-74
2022/03/19 00:59:30;;;;;;;5.93;2.97;;;;;;;;;;507012;29;1186;-73
2022/03/19 00:59:46;;;;;;;5.30;3.07;;;;;;;;;;508896;29;759;-73
2022/03/19 01:00:01;;;;;;;5.43;2.83;;;;;;;;;;509862;29;735;-73
2022/03/19 01:00:22;;;;;;;5.18;2.85;;;;;;;;;;510130;29;925;-73
2022/03/19 01:00:37;;;;;;;6.40;2.90;;;;;;;;;;509925;29;884;-73
2022/03/19 01:00:52;;;;;;;7.18;2.90;;;;;;;;;;512024;29;964;-73
2022/03/19 01:01:07;;;;;;;5.80;2.90;;;;;;;;;;512038;29;730;-73
2022/03/19 01:01:23;;;;;;;6.00;3.10;;;;;;;;;;512424;28;952;-73
2022/03/19 01:01:38;;;;;;;7.00;3.10;;;;;;;;;;513778;28;1154;-73
2022/03/19 01:01:56;;;;;;;6.93;3.00;;;;;;;;;;513903;28;971;-73
2022/03/19 01:02:11;;;;;;;6.63;3.00;;;;;;;;;;514148;28;805;-73
2022/03/19 01:02:27;;;;;;;5.90;2.97;;;;;;;;;;514106;28;722;-73
2022/03/19 01:02:44;;;;;;;6.43;3.00;;;;;;;;;;514284;28;987;-73
2022/03/19 01:02:59;;;;;;;5.95;2.92;;;;;;;;;;513949;28;1377;-73
2022/03/19 01:03:15;;;;;;;6.03;2.80;;;;;;;;;;513474;28;1575;-73
2022/03/19 01:03:30;;;;;;;6.78;2.80;;;;;;;;;;513084;28;849;-73
2022/03/19 01:03:46;;;;;;;6.93;2.97;;;;;;;;;;509972;28;843;-73
2022/03/19 01:04:02;;;;;;;6.97;3.07;;;;;;;;;;512123;28;1216;-73
2022/03/19 01:04:17;;;;;;;7.22;2.88;;;;;;;;;;511066;29;1428;-73
2022/03/19 01:04:32;;;;;;;7.67;2.97;;;;;;;;;;510994;29;1416;-73
2022/03/19 01:04:48;;;;;;;6.88;3.20;;;;;;;;;;511681;28;1312;-73
2022/03/19 01:05:04;;;;;;;6.33;3.17;;;;;;;;;;513693;28;738;-73
2022/03/19 01:05:21;;;;;;;6.43;3.10;;;;;;;;;;513886;28;805;-73
2022/03/19 01:05:36;;;;;;;6.85;3.03;;;;;;;;;;513043;28;790;-73
2022/03/19 01:05:51;;;;;;;7.37;3.00;;;;;;;;;;511588;29;1150;-73
2022/03/19 01:06:06;;;;;;;6.70;2.80;;;;;;;;;;512260;29;768;-73
2022/03/19 01:06:22;;;;;;;6.75;2.70;;;;;;;;;;511883;29;833;-73
2022/03/19 01:06:37;;;;;;;7.23;2.87;;;;;;;;;;512525;28;723;-73
2022/03/19 01:06:52;;;;;;;6.80;2.90;;;;;;;;;;514086;28;961;-73
2022/03/19 01:07:08;;;;;;;5.68;2.80;;;;;;;;;;511580;29;1370;-73
2022/03/19 01:07:23;;;;;;;6.03;2.90;;;;;;;;;;511988;29;738;-73
2022/03/19 01:07:47;;;;;;;5.93;2.90;;;;;;;;;;510086;29;1154;-73
2022/03/19 01:08:03;;;;;;;6.28;3.13;;;;;;;;;;510971;29;933;-73
2022/03/19 01:08:18;;;;;;;5.80;3.10;;;;;;;;;;510945;29;1536;-73
2022/03/19 01:08:34;;;;;;;5.67;2.83;;;;;;;;;;508098;29;1348;-73
2022/03/19 01:08:49;;;;;;;6.27;2.53;;;;;;;;;;508534;29;758;-73
2022/03/19 01:09:04;;;;;;;5.83;2.70;;;;;;;;;;508211;29;739;-73
2022/03/19 01:09:19;;;;;;;6.05;2.90;;;;;;;;;;508318;29;813;-73
2022/03/19 01:09:35;;;;;;;5.50;2.70;;;;;;;;;;510989;29;1981;-73
2022/03/19 01:09:50;;;;;;;5.20;2.70;;;;;;;;;;511871;29;849;-73
2022/03/19 01:10:06;;;;;;;5.47;2.80;;;;;;;;;;509420;29;1175;-73
2022/03/19 01:10:25;;;;;;;5.50;2.80;;;;;;;;;;509946;29;746;-73
2022/03/19 01:10:40;;;;;;;5.80;2.80;;;;;;;;;;510109;29;837;-73
2022/03/19 01:10:56;;;;;;;5.65;2.70;;;;;;;;;;508161;29;1296;-73
2022/03/19 01:11:11;;;;;;;5.88;2.70;;;;;;;;;;510232;29;1186;-73
2022/03/19 01:11:28;;;;;;;7.53;2.90;;;;;;;;;;510241;29;1342;-73
2022/03/19 01:11:43;;;;;;;7.18;2.90;;;;;;;;;;510262;29;856;-73
2022/03/19 01:11:58;;;;;;;5.55;2.80;;;;;;;;;;511487;28;1146;-73
2022/03/19 01:12:14;;;;;;;6.07;2.90;;;;;;;;;;512103;29;833;-73
2022/03/19 01:12:29;;;;;;;6.20;2.97;;;;;;;;;;511680;29;838;-73
2022/03/19 01:12:44;;;;;;;7.40;2.80;;;;;;;;;;512132;29;795;-73
2022/03/19 01:12:59;;;;;;;6.63;2.90;;;;;;;;;;513344;28;1245;-73
2022/03/19 01:13:14;;;;;;;5.37;2.90;;;;;;;;;;513134;28;1468;-73
2022/03/19 01:13:30;;;;;;;5.23;2.70;;;;;;;;;;513765;28;907;-73
2022/03/19 01:13:45;;;;;;;4.88;2.90;;;;;;;;;;514008;28;768;-73
2022/03/19 01:14:00;;;;;;;6.33;3.00;;;;;;;;;;511378;29;1160;-73
2022/03/19 01:14:16;;;;;;;6.47;3.00;;;;;;;;;;510110;29;1284;-73
2022/03/19 01:14:31;;;;;;;5.90;3.00;;;;;;;;;;508946;29;960;-73
2022/03/19 01:14:46;;;;;;;6.65;3.00;;;;;;;;;;510290;29;1273;-73
2022/03/19 01:15:01;;;;;;;6.90;3.10;;;;;;;;;;511702;29;833;-73
2022/03/19 01:15:17;;;;;;;6.57;3.10;;;;;;;;;;511404;29;1266;-73
2022/03/19 01:15:33;;;;;;;6.28;2.97;;;;;;;;;;511954;29;789;-73
2022/03/19 01:15:48;;;;;;;5.75;2.83;;;;;;;;;;512114;29;742;-73
2022/03/19 01:16:04;;;;;;;5.77;2.70;;;;;;;;;;511941;28;795;-73
2022/03/19 01:16:20;;;;;;;5.68;2.70;;;;;;;;;;513811;28;1222;-73
2022/03/19 01:16:35;;;;;;;5.88;2.70;;;;;;;;;;514213;28;936;-73
2022/03/19 01:16:50;;;;;;;6.63;2.70;;;;;;;;;;514034;28;1078;-73
2022/03/19 01:17:06;;;;;;;7.23;2.87;;;;;;;;;;510702;29;1147;-73
2022/03/19 01:17:21;;;;;;;7.13;2.90;;;;;;;;;;509696;29;856;-73
2022/03/19 01:17:37;;;;;;;6.50;2.97;;;;;;;;;;509601;29;1107;-73
2022/03/19 01:17:53;;;;;;;7.05;3.13;;;;;;;;;;509065;29;961;-73
2022/03/19 01:18:08;;;;;;;7.03;3.10;;;;;;;;;;509988;29;845;-73
2022/03/19 01:18:24;;;;;;;6.17;2.93;;;;;;;;;;513044;28;1560;-73
2022/03/19 01:18:39;;;;;;;5.93;2.75;;;;;;;;;;511314;29;1260;-73
2022/03/19 01:18:55;;;;;;;5.20;2.60;;;;;;;;;;510303;29;813;-73
2022/03/19 01:19:10;;;;;;;4.85;2.70;;;;;;;;;;511931;29;967;-73
2022/03/19 01:20:01;;;;;;;7.05;2.97;;;;;;;;;;509674;29;654;-73
2022/03/19 01:20:17;;;;;;;6.70;2.92;;;;;;;;;;511684;29;796;-73
2022/03/19 01:20:33;;;;;;;5.32;2.90;;;;;;;;;;513029;28;956;-73
2022/03/19 01:20:49;;;;;;;6.47;2.80;;;;;;;;;;513988;28;789;-73
2022/03/19 01:21:04;;;;;;;7.47;2.90;;;;;;;;;;511766;29;1258;-73
2022/03/19 01:21:19;;;;;;;6.53;2.93;;;;;;;;;;512934;28;1138;-73
2022/03/19 01:21:35;;;;;;;5.47;2.85;;;;;;;;;;511860;29;1165;-73
2022/03/19 01:21:51;;;;;;;5.32;2.75;;;;;;;;;;511780;29;874;-73
2022/03/19 01:22:06;;;;;;;6.40;3.00;;;;;;;;;;512157;29;849;-73
2022/03/19 01:22:21;;;;;;;6.13;3.13;;;;;;;;;;511785;29;738;-73
2022/03/19 01:22:38;;;;;;;5.00;2.78;;;;;;;;;;511967;29;806;-73
2022/03/19 01:22:53;;;;;;;6.30;2.80;;;;;;;;;;510688;29;770;-73
2022/03/19 01:23:09;;;;;;;6.90;2.95;;;;;;;;;;513783;28;1152;-73
2022/03/19 01:23:24;;;;;;;6.63;3.10;;;;;;;;;;513422;28;1519;-73
2022/03/19 01:23:39;;;;;;;6.93;3.10;;;;;;;;;;513950;28;916;-73
2022/03/19 01:23:54;;;;;;;6.55;2.92;;;;;;;;;;514116;28;932;-73
2022/03/19 01:24:10;;;;;;;5.23;2.90;;;;;;;;;;513971;28;769;-73
2022/03/19 01:24:25;;;;;;;4.97;2.83;;;;;;;;;;513209;28;1142;-73
2022/03/19 01:24:40;;;;;;;5.57;2.70;;;;;;;;;;513849;28;804;-73
2022/03/19 01:24:57;;;;;;;5.10;2.50;;;;;;;;;;513787;28;1007;-73
2022/03/19 01:25:13;;;;;;;5.20;2.70;;;;;;;;;;513813;28;792;-73
2022/03/19 01:25:28;;;;;;;5.65;2.78;;;;;;;;;;512870;28;969;-73
2022/03/19 01:25:43;;;;;;;5.75;2.63;;;;;;;;;;510004;29;1142;-73
2022/03/19 01:25:59;;;;;;;6.17;2.63;;;;;;;;;;508439;29;1277;-73
2022/03/19 01:26:14;;;;;;;6.13;2.75;;;;;;;;;;509610;29;797;-73
2022/03/19 01:26:30;;;;;;;5.80;2.77;;;;;;;;;;507841;29;1316;-73
2022/03/19 01:26:45;;;;;;;7.07;3.00;;;;;;;;;;507929;29;1178;-73
2022/03/19 01:27:00;;;;;;;7.25;3.00;;;;;;;;;;509401;29;1245;-73
2022/03/19 01:27:16;;;;;;;6.33;2.80;;;;;;;;;;508943;29;1384;-73
2022/03/19 01:27:32;;;;;;;6.43;2.80;;;;;;;;;;508264;29;1318;-73
2022/03/19 01:27:50;;;;;;;6.30;2.83;;;;;;;;;;509854;29;1233;-73
2022/03/19 01:28:05;;;;;;;4.88;2.60;;;;;;;;;;509923;29;812;-73
2022/03/19 01:28:21;;;;;;;5.82;2.60;;;;;;;;;;510004;29;1571;-73
2022/03/19 01:28:36;;;;;;;6.97;2.80;;;;;;;;;;510341;29;794;-73
2022/03/19 01:28:51;;;;;;;7.15;2.83;;;;;;;;;;510633;29;935;-73
2022/03/19 01:29:06;;;;;;;6.77;2.83;;;;;;;;;;512044;28;900;-73
2022/03/19 01:29:22;;;;;;;7.77;2.90;;;;;;;;;;513415;28;758;-73
2022/03/19 01:29:37;;;;;;;8.37;2.87;;;;;;;;;;511852;29;1942;-73
2022/03/19 01:29:52;;;;;;;5.93;2.83;;;;;;;;;;511975;29;928;-73
2022/03/19 01:30:09;;;;;;;5.17;2.80;;;;;;;;;;512745;28;773;-73
2022/03/19 01:30:24;;;;;;;4.93;2.65;;;;;;;;;;514148;28;749;-73
2022/03/19 01:30:40;;;;;;;6.67;2.80;;;;;;;;;;513902;28;768;-73
2022/03/19 01:30:55;;;;;;;8.13;2.95;;;;;;;;;;513496;28;995;-73
2022/03/19 01:31:13;;;;;;;7.73;3.03;;;;;;;;;;514299;28;750;-73
2022/03/19 01:31:28;;;;;;;7.43;2.88;;;;;;;;;;512751;28;1273;-73
2022/03/19 01:31:44;;;;;;;7.03;2.77;;;;;;;;;;513837;28;781;-73
2022/03/19 01:31:59;;;;;;;6.80;2.90;;;;;;;;;;511903;29;1272;-73
2022/03/19 01:32:14;;;;;;;7.00;2.90;;;;;;;;;;512021;29;824;-73
2022/03/19 01:32:30;;;;;;;7.00;2.80;;;;;;;;;;511688;29;912;-73
2022/03/19 01:32:46;;;;;;;6.30;2.80;;;;;;;;;;509234;29;1172;-73
2022/03/19 01:33:01;;;;;;;5.72;2.70;;;;;;;;;;509962;29;848;-73
2022/03/19 01:33:17;;;;;;;5.88;2.78;;;;;;;;;;509378;29;1466;-73
2022/03/19 01:33:32;;;;;;;5.43;2.87;;;;;;;;;;509858;29;1281;-73
2022/03/19 01:33:50;;;;;;;5.17;2.80;;;;;;;;;;510487;29;944;-73
2022/03/19 01:34:06;;;;;;;5.90;2.92;;;;;;;;;;511691;29;1019;-73
2022/03/19 01:34:21;;;;;;;6.10;3.00;;;;;;;;;;511942;29;1181;-73
2022/03/19 01:34:36;;;;;;;7.47;3.03;;;;;;;;;;512720;28;1365;-73
2022/03/19 01:34:53;;;;;;;6.65;3.03;;;;;;;;;;511703;29;1310;-73
2022/03/19 01:35:10;;;;;;;5.13;2.83;;;;;;;;;;509697;29;1502;-73
2022/03/19 01:35:25;;;;;;;4.90;2.70;;;;;;;;;;508051;29;1408;-73
2022/03/19 01:35:40;;;;;;;5.23;2.60;;;;;;;;;;508363;29;758;-73
2022/03/19 01:35:56;;;;;;;6.97;2.67;;;;;;;;;;504470;29;1300;-73
2022/03/19 01:36:11;;;;;;;7.10;2.83;;;;;;;;;;506288;29;1207;-73
2022/03/19 01:36:26;;;;;;;6.50;3.00;;;;;;;;;;505981;29;810;-73
2022/03/19 01:36:42;;;;;;;6.10;3.03;;;;;;;;;;505591;29;1256;-73
2022/03/19 01:36:57;;;;;;;5.37;2.93;;;;;;;;;;507807;29;1322;-73
2022/03/19 01:37:12;;;;;;;5.93;2.90;;;;;;;;;;508106;29;1252;-73
2022/03/19 01:37:27;;;;;;;6.20;2.80;;;;;;;;;;507542;29;987;-73
2022/03/19 01:37:44;;;;;;;5.10;2.60;;;;;;;;;;506488;29;1288;-73
2022/03/19 01:37:59;;;;;;;5.93;2.80;;;;;;;;;;508461;29;936;-73